National Glory — WDD4207 — position and weather

sailwx.info

Track history (hours):
 
Tides and Currents Weather Stations Pressure Air Temp Water Temp Dewpoint Dewpoint Depression Visibility Wind Speed Wind Dir Waves Ship Positions

National Glory

Owner: Crowley Global Ship Management, Inc, Jacksonville, FL. More information available from US FCC via Universal Licensing System and Coast Guard Vessel Documentation Center.

Last reported at 2018-Jul-14 23:48 UTC. Time now 2018-Jul-18 18:33 UTC.
Position N 29°21' W 094°47'.

Length 149 m; draft 8.5 m.

Type: Ship (hazmat cat B). MMSI: 367141680.

Date/timePositionNaut miles runAvg speedWind from/ knotsBaromVisibWave heightAir tempDewpointWater temp
2018-Jul-14 23:48N 29°21' W 094°47'1310.3
2018-Jul-14 22:35N 29°32' W 094°54'110.6
2018-Jul-14 22:30N 29°32' W 094°54'510.7
2018-Jul-14 22:00N 29°37' W 094°57'510.7
2018-Jul-14 21:30N 29°42' W 094°60'  
2018-Jul-12 10:33N 29°45' W 095°06'2 4.2
2018-Jul-12 10:05N 29°45' W 095°04'110.7
2018-Jul-12 09:58N 29°44' W 095°03'3 7.0
2018-Jul-12 09:30N 29°42' W 095°01'5 9.6
2018-Jul-12 09:01N 29°38' W 094°58'714.2
2018-Jul-12 08:30N 29°32' W 094°54'1314.4
2018-Jul-12 07:36N 29°21' W 094°46'33112.9
2018-Jul-11 06:00N 26°00' W 089°48'69114.4 060 / 31018.3 28.925.823.3
2018-Jul-09 06:00N 22°24' W 077°48'   090 / 201019.0 27.827.423.3
Track history (hours):
 
Tides and Currents Weather Stations Pressure Air Temp Water Temp Dewpoint Dewpoint Depression Visibility Wind Speed Wind Dir Waves Ship Positions

National Glory

Owner: Crowley Global Ship Management, Inc, Jacksonville, FL. More information available from US FCC via Universal Licensing System and Coast Guard Vessel Documentation Center.

Last reported at 2018-Jul-14 23:48 UTC. Time now 2018-Jul-18 18:33 UTC.
Position N 29°21' W 094°47'.

Length 149 m; draft 8.5 m.

Type: Ship (hazmat cat B). MMSI: 367141680.

Date/timePositionNaut miles runAvg speedWind from/ knotsBaromVisibWave heightAir tempDewpointWater temp
2018-Jul-14 23:48N 29°21' W 094°47'1310.3
2018-Jul-14 22:35N 29°32' W 094°54'110.6
2018-Jul-14 22:30N 29°32' W 094°54'510.7
2018-Jul-14 22:00N 29°37' W 094°57'510.7
2018-Jul-14 21:30N 29°42' W 094°60'  
2018-Jul-12 10:33N 29°45' W 095°06'2 4.2
2018-Jul-12 10:05N 29°45' W 095°04'110.7
2018-Jul-12 09:58N 29°44' W 095°03'3 7.0
2018-Jul-12 09:30N 29°42' W 095°01'5 9.6
2018-Jul-12 09:01N 29°38' W 094°58'714.2
2018-Jul-12 08:30N 29°32' W 094°54'1314.4
2018-Jul-12 07:36N 29°21' W 094°46'33112.9
2018-Jul-11 06:00N 26°00' W 089°48'69114.4 060 / 31018.3 28.925.823.3
2018-Jul-09 06:00N 22°24' W 077°48'   090 / 201019.0 27.827.423.3

Dump ship's entire track history